sensor_id;sensor_type;location;lat;lon;timestamp;pressure;altitude;pressure_sealevel;temperature;humidity
59170;BME280;52474;52.236;5.114;2023-05-09T00:01:12;101833.97;;;13.51;100.00
59170;BME280;52474;52.236;5.114;2023-05-09T00:03:39;101831.69;;;13.46;100.00
59170;BME280;52474;52.236;5.114;2023-05-09T00:06:05;101808.50;;;13.37;100.00
59170;BME280;52474;52.236;5.114;2023-05-09T00:08:32;101819.50;;;13.44;100.00
59170;BME280;52474;52.236;5.114;2023-05-09T00:10:57;101815.72;;;13.46;100.00
59170;BME280;52474;52.236;5.114;2023-05-09T00:13:24;101818.41;;;13.46;100.00
59170;BME280;52474;52.236;5.114;2023-05-09T00:15:50;101808.97;;;13.42;100.00
59170;BME280;52474;52.236;5.114;2023-05-09T00:18:22;101803.38;;;13.45;100.00
59170;BME280;52474;52.236;5.114;2023-05-09T00:20:49;101776.56;;;13.26;100.00
59170;BME280;52474;52.236;5.114;2023-05-09T00:23:15;101783.34;;;13.19;100.00
59170;BME280;52474;52.236;5.114;2023-05-09T00:25:41;101810.53;;;13.45;100.00
59170;BME280;52474;52.236;5.114;2023-05-09T00:28:07;101799.88;;;13.45;100.00
59170;BME280;52474;52.236;5.114;2023-05-09T00:30:34;101799.88;;;13.45;100.00
59170;BME280;52474;52.236;5.114;2023-05-09T00:32:59;101782.72;;;13.38;100.00
59170;BME280;52474;52.236;5.114;2023-05-09T00:35:25;101778.75;;;13.32;100.00
59170;BME280;52474;52.236;5.114;2023-05-09T00:37:51;101788.88;;;13.38;100.00
59170;BME280;52474;52.236;5.114;2023-05-09T00:40:17;101788.88;;;13.38;100.00
59170;BME280;52474;52.236;5.114;2023-05-09T00:42:43;101789.16;;;13.35;100.00
59170;BME280;52474;52.236;5.114;2023-05-09T00:45:09;101781.78;;;13.27;100.00
59170;BME280;52474;52.236;5.114;2023-05-09T00:47:35;101777.41;;;13.26;100.00
59170;BME280;52474;52.236;5.114;2023-05-09T00:50:01;101771.25;;;13.26;100.00
59170;BME280;52474;52.236;5.114;2023-05-09T00:52:27;101782.13;;;13.23;100.00
59170;BME280;52474;52.236;5.114;2023-05-09T00:54:53;101771.63;;;13.21;100.00
59170;BME280;52474;52.236;5.114;2023-05-09T00:57:20;101773.56;;;13.19;100.00
59170;BME280;52474;52.236;5.114;2023-05-09T00:59:47;101778.50;;;13.24;100.00
59170;BME280;52474;52.236;5.114;2023-05-09T01:02:14;101753.03;;;13.10;100.00
59170;BME280;52474;52.236;5.114;2023-05-09T01:04:40;101766.19;;;13.23;100.00
59170;BME280;52474;52.236;5.114;2023-05-09T01:07:21;101758.19;;;13.23;100.00
59170;BME280;52474;52.236;5.114;2023-05-09T01:10:07;101748.78;;;13.19;100.00
59170;BME280;52474;52.236;5.114;2023-05-09T01:20:25;101745.38;;;13.28;100.00
59170;BME280;52474;52.236;5.114;2023-05-09T01:31:40;101735.81;;;13.25;100.00
59170;BME280;52474;52.236;5.114;2023-05-09T01:34:10;101697.81;;;13.02;100.00
59170;BME280;52474;52.236;5.114;2023-05-09T01:36:37;101718.69;;;13.18;100.00
59170;BME280;52474;52.236;5.114;2023-05-09T01:39:05;101728.72;;;13.15;100.00
59170;BME280;52474;52.236;5.114;2023-05-09T01:41:35;101721.72;;;13.14;100.00
59170;BME280;52474;52.236;5.114;2023-05-09T01:44:02;101725.94;;;13.16;100.00
59170;BME280;52474;52.236;5.114;2023-05-09T01:46:29;101725.34;;;13.13;100.00
59170;BME280;52474;52.236;5.114;2023-05-09T01:48:56;101690.50;;;12.95;100.00
59170;BME280;52474;52.236;5.114;2023-05-09T01:51:23;101691.91;;;12.99;100.00
59170;BME280;52474;52.236;5.114;2023-05-09T01:53:50;101701.41;;;13.13;100.00
59170;BME280;52474;52.236;5.114;2023-05-09T01:56:17;101701.41;;;13.13;100.00
59170;BME280;52474;52.236;5.114;2023-05-09T01:58:45;101712.50;;;13.18;100.00
59170;BME280;52474;52.236;5.114;2023-05-09T02:01:13;101690.16;;;13.09;100.00
59170;BME280;52474;52.236;5.114;2023-05-09T02:03:41;101696.81;;;13.15;100.00
59170;BME280;52474;52.236;5.114;2023-05-09T02:06:08;101693.28;;;13.14;100.00
59170;BME280;52474;52.236;5.114;2023-05-09T02:08:34;101687.75;;;13.17;100.00
59170;BME280;52474;52.236;5.114;2023-05-09T02:11:00;101674.81;;;13.13;100.00
59170;BME280;52474;52.236;5.114;2023-05-09T02:13:26;101690.03;;;13.22;100.00
59170;BME280;52474;52.236;5.114;2023-05-09T02:15:52;101690.97;;;13.21;100.00
59170;BME280;52474;52.236;5.114;2023-05-09T02:18:19;101673.84;;;13.14;100.00
59170;BME280;52474;52.236;5.114;2023-05-09T02:20:46;101681.31;;;13.20;100.00
59170;BME280;52474;52.236;5.114;2023-05-09T02:23:12;101675.00;;;13.21;100.00
59170;BME280;52474;52.236;5.114;2023-05-09T02:25:39;101683.13;;;13.19;100.00
59170;BME280;52474;52.236;5.114;2023-05-09T02:28:07;101685.31;;;13.14;100.00
59170;BME280;52474;52.236;5.114;2023-05-09T02:30:38;101676.75;;;13.10;100.00
59170;BME280;52474;52.236;5.114;2023-05-09T02:33:07;101684.63;;;13.12;100.00
59170;BME280;52474;52.236;5.114;2023-05-09T02:35:34;101687.28;;;13.12;100.00
59170;BME280;52474;52.236;5.114;2023-05-09T02:38:02;101679.31;;;13.12;100.00
59170;BME280;52474;52.236;5.114;2023-05-09T02:40:29;101682.66;;;13.14;100.00
59170;BME280;52474;52.236;5.114;2023-05-09T02:42:55;101684.63;;;13.12;100.00
59170;BME280;52474;52.236;5.114;2023-05-09T02:45:21;101672.41;;;13.09;100.00
59170;BME280;52474;52.236;5.114;2023-05-09T02:47:47;101676.88;;;13.09;100.00
59170;BME280;52474;52.236;5.114;2023-05-09T02:50:13;101666.22;;;13.09;100.00
59170;BME280;52474;52.236;5.114;2023-05-09T02:52:39;101659.50;;;13.05;100.00
59170;BME280;52474;52.236;5.114;2023-05-09T02:55:06;101666.84;;;13.13;100.00
59170;BME280;52474;52.236;5.114;2023-05-09T02:57:35;101663.34;;;13.12;100.00
59170;BME280;52474;52.236;5.114;2023-05-09T03:00:02;101654.25;;;13.15;100.00
59170;BME280;52474;52.236;5.114;2023-05-09T03:02:30;101653.66;;;13.11;100.00
59170;BME280;52474;52.236;5.114;2023-05-09T03:04:57;101646.41;;;13.13;100.00
59170;BME280;52474;52.236;5.114;2023-05-09T03:07:22;101636.16;;;13.08;100.00
59170;BME280;52474;52.236;5.114;2023-05-09T03:09:48;101622.28;;;13.05;100.00
59170;BME280;52474;52.236;5.114;2023-05-09T03:12:14;101637.84;;;13.09;100.00
59170;BME280;52474;52.236;5.114;2023-05-09T03:14:40;101623.13;;;13.05;100.00
59170;BME280;52474;52.236;5.114;2023-05-09T03:17:06;101624.59;;;12.98;100.00
59170;BME280;52474;52.236;5.114;2023-05-09T03:19:34;101633.75;;;13.05;100.00
59170;BME280;52474;52.236;5.114;2023-05-09T03:22:00;101637.38;;;13.04;100.00
59170;BME280;52474;52.236;5.114;2023-05-09T03:24:27;101624.66;;;13.08;100.00
59170;BME280;52474;52.236;5.114;2023-05-09T03:26:53;101623.13;;;13.05;100.00
59170;BME280;52474;52.236;5.114;2023-05-09T03:29:19;101600.09;;;12.95;100.00
59170;BME280;52474;52.236;5.114;2023-05-09T03:31:45;101621.44;;;13.04;100.00
59170;BME280;52474;52.236;5.114;2023-05-09T03:34:11;101605.25;;;12.96;100.00
59170;BME280;52474;52.236;5.114;2023-05-09T03:36:41;101608.19;;;12.93;100.00
59170;BME280;52474;52.236;5.114;2023-05-09T03:39:12;101592.97;;;12.84;100.00
59170;BME280;52474;52.236;5.114;2023-05-09T03:41:40;101603.69;;;12.94;100.00
59170;BME280;52474;52.236;5.114;2023-05-09T03:44:08;101602.03;;;12.93;100.00
59170;BME280;52474;52.236;5.114;2023-05-09T03:46:34;101593.59;;;12.87;100.00
59170;BME280;52474;52.236;5.114;2023-05-09T03:49:00;101576.56;;;12.79;100.00
59170;BME280;52474;52.236;5.114;2023-05-09T03:51:26;101590.47;;;12.82;100.00
59170;BME280;52474;52.236;5.114;2023-05-09T03:53:54;101589.59;;;12.82;100.00
59170;BME280;52474;52.236;5.114;2023-05-09T03:56:22;101586.38;;;12.78;100.00
59170;BME280;52474;52.236;5.114;2023-05-09T03:58:50;101589.59;;;12.82;100.00
59170;BME280;52474;52.236;5.114;2023-05-09T04:01:17;101583.97;;;12.75;100.00
59170;BME280;52474;52.236;5.114;2023-05-09T04:03:43;101578.66;;;12.75;100.00
59170;BME280;52474;52.236;5.114;2023-05-09T04:06:11;101580.34;;;12.76;100.00
59170;BME280;52474;52.236;5.114;2023-05-09T04:08:41;101590.69;;;12.79;100.00
59170;BME280;52474;52.236;5.114;2023-05-09T04:11:07;101570.81;;;12.74;100.00
59170;BME280;52474;52.236;5.114;2023-05-09T04:13:37;101572.81;;;12.81;100.00
59170;BME280;52474;52.236;5.114;2023-05-09T04:16:11;101544.03;;;12.65;100.00
59170;BME280;52474;52.236;5.114;2023-05-09T04:18:37;101566.66;;;12.81;100.00
59170;BME280;52474;52.236;5.114;2023-05-09T04:21:07;101556.78;;;12.72;100.00
59170;BME280;52474;52.236;5.114;2023-05-09T04:23:33;101558.34;;;12.74;100.00
59170;BME280;52474;52.236;5.114;2023-05-09T04:25:58;101555.84;;;12.73;100.00
59170;BME280;52474;52.236;5.114;2023-05-09T04:28:25;101573.16;;;12.88;100.00
59170;BME280;52474;52.236;5.114;2023-05-09T04:30:52;101563.91;;;12.82;100.00
59170;BME280;52474;52.236;5.114;2023-05-09T04:33:18;101560.69;;;12.88;100.00
59170;BME280;52474;52.236;5.114;2023-05-09T04:35:46;101564.34;;;12.87;100.00
59170;BME280;52474;52.236;5.114;2023-05-09T04:38:13;101551.56;;;12.81;100.00
59170;BME280;52474;52.236;5.114;2023-05-09T04:40:39;101536.91;;;12.87;100.00
59170;BME280;52474;52.236;5.114;2023-05-09T04:43:05;101551.97;;;12.98;100.00
59170;BME280;52474;52.236;5.114;2023-05-09T04:45:33;101557.72;;;13.03;100.00
59170;BME280;52474;52.236;5.114;2023-05-09T04:48:00;101546.13;;;13.04;100.00
59170;BME280;52474;52.236;5.114;2023-05-09T04:50:26;101531.03;;;13.04;100.00
59170;BME280;52474;52.236;5.114;2023-05-09T04:52:52;101526.00;;;13.11;100.00
59170;BME280;52474;52.236;5.114;2023-05-09T04:55:18;101535.88;;;13.20;100.00
59170;BME280;52474;52.236;5.114;2023-05-09T04:57:47;101546.72;;;13.28;100.00
59170;BME280;52474;52.236;5.114;2023-05-09T05:00:13;101539.06;;;13.35;100.00
59170;BME280;52474;52.236;5.114;2023-05-09T05:02:41;101532.47;;;13.29;100.00
59170;BME280;52474;52.236;5.114;2023-05-09T05:05:07;101531.78;;;13.37;100.00
59170;BME280;52474;52.236;5.114;2023-05-09T05:07:36;101530.41;;;13.43;100.00
59170;BME280;52474;52.236;5.114;2023-05-09T05:10:02;101534.34;;;13.48;100.00
59170;BME280;52474;52.236;5.114;2023-05-09T05:12:29;101507.31;;;13.43;100.00
59170;BME280;52474;52.236;5.114;2023-05-09T05:14:55;101515.72;;;13.48;100.00
59170;BME280;52474;52.236;5.114;2023-05-09T05:17:21;101492.06;;;13.45;100.00
59170;BME280;52474;52.236;5.114;2023-05-09T05:19:49;101512.44;;;13.66;100.00
59170;BME280;52474;52.236;5.114;2023-05-09T05:22:15;101524.50;;;13.70;100.00
59170;BME280;52474;52.236;5.114;2023-05-09T05:24:44;101487.19;;;13.60;100.00
59170;BME280;52474;52.236;5.114;2023-05-09T05:27:10;101502.16;;;13.92;100.00
59170;BME280;52474;52.236;5.114;2023-05-09T05:29:36;101481.09;;;13.79;100.00
59170;BME280;52474;52.236;5.114;2023-05-09T05:32:01;101506.06;;;13.98;100.00
59170;BME280;52474;52.236;5.114;2023-05-09T05:34:27;101485.34;;;13.91;100.00
59170;BME280;52474;52.236;5.114;2023-05-09T05:36:53;101502.44;;;13.99;100.00
59170;BME280;52474;52.236;5.114;2023-05-09T05:39:19;101496.13;;;13.90;100.00
59170;BME280;52474;52.236;5.114;2023-05-09T05:41:45;101469.72;;;13.67;100.00
59170;BME280;52474;52.236;5.114;2023-05-09T05:44:11;101496.78;;;13.82;100.00
59170;BME280;52474;52.236;5.114;2023-05-09T05:46:37;101488.97;;;13.90;100.00
59170;BME280;52474;52.236;5.114;2023-05-09T05:49:04;101494.56;;;13.87;100.00
59170;BME280;52474;52.236;5.114;2023-05-09T05:51:30;101471.69;;;13.75;100.00
59170;BME280;52474;52.236;5.114;2023-05-09T05:53:56;101469.31;;;13.72;100.00
59170;BME280;52474;52.236;5.114;2023-05-09T05:56:23;101470.59;;;13.78;100.00
59170;BME280;52474;52.236;5.114;2023-05-09T05:58:49;101470.59;;;13.78;100.00
59170;BME280;52474;52.236;5.114;2023-05-09T06:01:16;101479.28;;;13.80;100.00
59170;BME280;52474;52.236;5.114;2023-05-09T06:03:42;101463.44;;;13.68;100.00
59170;BME280;52474;52.236;5.114;2023-05-09T06:06:08;101477.31;;;13.72;100.00
59170;BME280;52474;52.236;5.114;2023-05-09T06:08:34;101469.59;;;13.69;100.00
59170;BME280;52474;52.236;5.114;2023-05-09T06:11:00;101422.72;;;13.37;100.00
59170;BME280;52474;52.236;5.114;2023-05-09T06:13:25;101465.38;;;13.66;100.00
59170;BME280;52474;52.236;5.114;2023-05-09T06:15:57;101470.84;;;13.65;100.00
59170;BME280;52474;52.236;5.114;2023-05-09T06:18:23;101455.00;;;13.63;100.00
59170;BME280;52474;52.236;5.114;2023-05-09T06:20:48;101461.59;;;13.69;100.00
59170;BME280;52474;52.236;5.114;2023-05-09T06:23:14;101440.13;;;13.61;100.00
59170;BME280;52474;52.236;5.114;2023-05-09T06:25:42;101445.06;;;13.65;100.00
59170;BME280;52474;52.236;5.114;2023-05-09T06:28:10;101447.03;;;13.73;100.00
59170;BME280;52474;52.236;5.114;2023-05-09T06:30:36;101447.00;;;13.63;100.00
59170;BME280;52474;52.236;5.114;2023-05-09T06:33:02;101455.72;;;13.75;100.00
59170;BME280;52474;52.236;5.114;2023-05-09T06:35:27;101452.66;;;13.80;100.00
59170;BME280;52474;52.236;5.114;2023-05-09T06:37:53;101446.63;;;13.78;100.00
59170;BME280;52474;52.236;5.114;2023-05-09T06:40:18;101434.59;;;13.73;100.00
59170;BME280;52474;52.236;5.114;2023-05-09T06:42:44;101425.72;;;13.73;100.00
59170;BME280;52474;52.236;5.114;2023-05-09T06:45:10;101435.13;;;13.77;100.00
59170;BME280;52474;52.236;5.114;2023-05-09T06:47:36;101417.72;;;13.63;100.00
59170;BME280;52474;52.236;5.114;2023-05-09T06:50:02;101442.69;;;13.72;100.00
59170;BME280;52474;52.236;5.114;2023-05-09T06:52:28;101417.69;;;13.53;100.00
59170;BME280;52474;52.236;5.114;2023-05-09T06:54:54;101424.03;;;13.62;100.00
59170;BME280;52474;52.236;5.114;2023-05-09T06:57:19;101432.88;;;13.72;100.00
59170;BME280;52474;52.236;5.114;2023-05-09T06:59:45;101428.66;;;13.60;100.00
59170;BME280;52474;52.236;5.114;2023-05-09T07:02:11;101428.38;;;13.63;100.00
59170;BME280;52474;52.236;5.114;2023-05-09T07:04:36;101431.34;;;13.70;100.00
59170;BME280;52474;52.236;5.114;2023-05-09T07:07:02;101426.28;;;13.67;100.00
59170;BME280;52474;52.236;5.114;2023-05-09T07:09:28;101426.56;;;13.64;100.00
59170;BME280;52474;52.236;5.114;2023-05-09T07:11:54;101425.59;;;13.65;100.00
59170;BME280;52474;52.236;5.114;2023-05-09T07:14:20;101419.84;;;13.60;100.00
59170;BME280;52474;52.236;5.114;2023-05-09T07:16:46;101416.34;;;13.59;100.00
59170;BME280;52474;52.236;5.114;2023-05-09T07:19:11;101420.84;;;13.68;100.00
59170;BME280;52474;52.236;5.114;2023-05-09T07:21:37;101408.34;;;13.59;100.00
59170;BME280;52474;52.236;5.114;2023-05-09T07:24:03;101410.47;;;13.75;100.00
59170;BME280;52474;52.236;5.114;2023-05-09T07:26:29;101385.38;;;13.68;100.00
59170;BME280;52474;52.236;5.114;2023-05-09T07:28:55;101412.84;;;13.78;100.00
59170;BME280;52474;52.236;5.114;2023-05-09T07:31:21;101375.31;;;13.62;100.00
59170;BME280;52474;52.236;5.114;2023-05-09T07:33:47;101389.72;;;13.59;100.00
59170;BME280;52474;52.236;5.114;2023-05-09T07:36:12;101406.13;;;13.74;100.00
59170;BME280;52474;52.236;5.114;2023-05-09T07:38:40;101408.81;;;13.74;100.00
59170;BME280;52474;52.236;5.114;2023-05-09T07:41:06;101412.16;;;13.76;100.00
59170;BME280;52474;52.236;5.114;2023-05-09T07:43:32;101391.56;;;13.78;100.00
59170;BME280;52474;52.236;5.114;2023-05-09T07:45:59;101400.41;;;13.79;100.00
59170;BME280;52474;52.236;5.114;2023-05-09T07:48:25;101395.63;;;13.82;100.00
59170;BME280;52474;52.236;5.114;2023-05-09T07:50:50;101382.88;;;13.76;100.00
59170;BME280;52474;52.236;5.114;2023-05-09T07:53:16;101390.44;;;13.90;100.00
59170;BME280;52474;52.236;5.114;2023-05-09T07:55:42;101376.44;;;13.88;100.00
59170;BME280;52474;52.236;5.114;2023-05-09T07:58:09;101373.63;;;14.00;100.00
59170;BME280;52474;52.236;5.114;2023-05-09T08:00:35;101380.50;;;13.92;100.00
59170;BME280;52474;52.236;5.114;2023-05-09T08:03:00;101376.72;;;13.95;100.00
59170;BME280;52474;52.236;5.114;2023-05-09T08:05:26;101338.47;;;13.86;100.00
59170;BME280;52474;52.236;5.114;2023-05-09T08:07:52;101361.00;;;14.21;100.00
59170;BME280;52474;52.236;5.114;2023-05-09T08:10:17;101349.81;;;14.08;100.00
59170;BME280;52474;52.236;5.114;2023-05-09T08:12:43;101334.94;;;14.15;100.00
59170;BME280;52474;52.236;5.114;2023-05-09T08:15:09;101350.75;;;14.26;100.00
59170;BME280;52474;52.236;5.114;2023-05-09T08:17:35;101320.38;;;14.09;100.00
59170;BME280;52474;52.236;5.114;2023-05-09T08:20:01;101344.50;;;13.98;100.00
59170;BME280;52474;52.236;5.114;2023-05-09T08:22:27;101340.44;;;13.94;100.00
59170;BME280;52474;52.236;5.114;2023-05-09T08:24:52;101336.34;;;13.90;100.00
59170;BME280;52474;52.236;5.114;2023-05-09T08:27:18;101344.50;;;13.98;100.00
59170;BME280;52474;52.236;5.114;2023-05-09T08:29:44;101335.53;;;13.89;100.00
59170;BME280;52474;52.236;5.114;2023-05-09T08:32:09;101328.53;;;13.98;100.00
59170;BME280;52474;52.236;5.114;2023-05-09T08:34:35;101332.13;;;14.07;100.00
59170;BME280;52474;52.236;5.114;2023-05-09T08:37:01;101312.09;;;14.03;100.00
59170;BME280;52474;52.236;5.114;2023-05-09T08:39:29;101319.13;;;14.04;100.00
59170;BME280;52474;52.236;5.114;2023-05-09T08:41:57;101306.22;;;14.09;100.00
59170;BME280;52474;52.236;5.114;2023-05-09T08:44:24;101305.09;;;14.11;100.00
59170;BME280;52474;52.236;5.114;2023-05-09T08:46:51;101309.72;;;14.00;100.00
59170;BME280;52474;52.236;5.114;2023-05-09T08:49:19;101289.41;;;13.99;100.00
59170;BME280;52474;52.236;5.114;2023-05-09T08:51:47;101309.16;;;14.15;100.00
59170;BME280;52474;52.236;5.114;2023-05-09T08:54:13;101300.75;;;14.10;100.00
59170;BME280;52474;52.236;5.114;2023-05-09T08:56:40;101301.16;;;14.15;100.00
59170;BME280;52474;52.236;5.114;2023-05-09T08:59:07;101296.81;;;14.14;100.00
59170;BME280;52474;52.236;5.114;2023-05-09T09:01:34;101298.09;;;14.10;100.00
59170;BME280;52474;52.236;5.114;2023-05-09T09:04:05;101287.28;;;14.02;100.00
59170;BME280;52474;52.236;5.114;2023-05-09T09:06:32;101292.78;;;14.01;100.00
59170;BME280;52474;52.236;5.114;2023-05-09T09:09:02;101302.03;;;13.96;100.00
59170;BME280;52474;52.236;5.114;2023-05-09T09:11:36;101290.97;;;13.91;100.00
59170;BME280;52474;52.236;5.114;2023-05-09T09:14:06;101271.50;;;13.91;100.00
59170;BME280;52474;52.236;5.114;2023-05-09T09:16:36;101270.38;;;13.93;100.00
59170;BME280;52474;52.236;5.114;2023-05-09T09:19:03;101276.19;;;14.16;100.00
59170;BME280;52474;52.236;5.114;2023-05-09T09:21:32;101277.97;;;14.35;100.00
59170;BME280;52474;52.236;5.114;2023-05-09T09:23:58;101273.41;;;14.18;100.00
59170;BME280;52474;52.236;5.114;2023-05-09T09:26:24;101251.28;;;13.98;100.00
59170;BME280;52474;52.236;5.114;2023-05-09T09:28:54;101277.88;;;14.17;100.00
59170;BME280;52474;52.236;5.114;2023-05-09T09:31:25;101249.84;;;14.13;100.00
59170;BME280;52474;52.236;5.114;2023-05-09T09:34:00;101246.19;;;14.14;100.00
59170;BME280;52474;52.236;5.114;2023-05-09T09:36:28;101244.22;;;14.16;100.00
59170;BME280;52474;52.236;5.114;2023-05-09T09:38:58;101267.13;;;14.47;100.00
59170;BME280;52474;52.236;5.114;2023-05-09T09:41:37;101260.13;;;14.46;100.00
59170;BME280;52474;52.236;5.114;2023-05-09T09:44:17;101260.13;;;14.46;100.00
59170;BME280;52474;52.236;5.114;2023-05-09T09:46:54;101252.13;;;14.55;100.00
59170;BME280;52474;52.236;5.114;2023-05-09T09:49:24;101257.59;;;14.54;100.00
59170;BME280;52474;52.236;5.114;2023-05-09T09:51:55;101256.44;;;14.56;100.00
59170;BME280;52474;52.236;5.114;2023-05-09T09:54:21;101233.97;;;14.22;100.00
59170;BME280;52474;52.236;5.114;2023-05-09T09:56:49;101235.69;;;14.23;100.00
59170;BME280;52474;52.236;5.114;2023-05-09T09:59:17;101238.84;;;14.36;100.00
59170;BME280;52474;52.236;5.114;2023-05-09T10:02:01;101243.97;;;14.10;100.00
59170;BME280;52474;52.236;5.114;2023-05-09T10:04:31;101248.88;;;14.05;100.00
59170;BME280;52474;52.236;5.114;2023-05-09T10:06:59;101253.38;;;14.04;100.00
59170;BME280;52474;52.236;5.114;2023-05-09T10:09:26;101242.84;;;14.03;100.00
59170;BME280;52474;52.236;5.114;2023-05-09T10:12:15;101253.94;;;14.08;100.00
59170;BME280;52474;52.236;5.114;2023-05-09T10:14:45;101244.94;;;14.18;100.00
59170;BME280;52474;52.236;5.114;2023-05-09T10:17:13;101245.47;;;14.22;100.00
59170;BME280;52474;52.236;5.114;2023-05-09T10:19:43;101242.53;;;14.25;100.00
59170;BME280;52474;52.236;5.114;2023-05-09T10:22:14;101241.38;;;14.37;100.00
59170;BME280;52474;52.236;5.114;2023-05-09T10:25:04;101247.50;;;14.48;100.00
59170;BME280;52474;52.236;5.114;2023-05-09T10:27:34;101230.97;;;14.34;100.00
59170;BME280;52474;52.236;5.114;2023-05-09T10:30:07;101241.41;;;14.28;100.00
59170;BME280;52474;52.236;5.114;2023-05-09T10:35:09;101180.25;;;13.89;100.00
59170;BME280;52474;52.236;5.114;2023-05-09T10:37:39;101232.34;;;14.11;100.00
59170;BME280;52474;52.236;5.114;2023-05-09T10:40:05;101221.72;;;14.01;100.00
59170;BME280;52474;52.236;5.114;2023-05-09T10:42:32;101226.88;;;14.03;100.00
59170;BME280;52474;52.236;5.114;2023-05-09T10:44:58;101223.09;;;14.05;100.00
59170;BME280;52474;52.236;5.114;2023-05-09T10:47:25;101208.50;;;14.09;100.00
59170;BME280;52474;52.236;5.114;2023-05-09T10:49:53;101197.00;;;14.09;100.00
59170;BME280;52474;52.236;5.114;2023-05-09T10:52:22;101203.44;;;14.16;100.00
59170;BME280;52474;52.236;5.114;2023-05-09T10:54:59;101200.78;;;14.16;100.00
59170;BME280;52474;52.236;5.114;2023-05-09T10:57:55;101196.97;;;14.18;100.00
59170;BME280;52474;52.236;5.114;2023-05-09T11:00:24;101199.31;;;14.31;100.00
59170;BME280;52474;52.236;5.114;2023-05-09T11:03:05;101190.81;;;14.18;100.00
59170;BME280;52474;52.236;5.114;2023-05-09T11:05:38;101180.47;;;14.05;100.00
59170;BME280;52474;52.236;5.114;2023-05-09T11:08:28;101158.94;;;13.99;100.00
59170;BME280;52474;52.236;5.114;2023-05-09T11:10:58;101145.09;;;13.85;100.00
59170;BME280;52474;52.236;5.114;2023-05-09T11:13:35;101124.47;;;13.87;100.00
59170;BME280;52474;52.236;5.114;2023-05-09T11:16:02;101189.47;;;14.32;100.00
59170;BME280;52474;52.236;5.114;2023-05-09T11:18:31;101120.16;;;13.86;100.00
59170;BME280;52474;52.236;5.114;2023-05-09T11:20:58;101172.56;;;14.23;100.00
59170;BME280;52474;52.236;5.114;2023-05-09T11:23:25;101183.47;;;14.30;100.00
59170;BME280;52474;52.236;5.114;2023-05-09T11:25:52;101163.06;;;14.21;100.00
59170;BME280;52474;52.236;5.114;2023-05-09T11:28:28;101173.28;;;14.25;100.00
59170;BME280;52474;52.236;5.114;2023-05-09T11:31:12;101176.16;;;14.32;100.00
59170;BME280;52474;52.236;5.114;2023-05-09T11:33:39;101153.84;;;14.43;100.00
59170;BME280;52474;52.236;5.114;2023-05-09T11:39:07;101120.03;;;14.15;100.00
59170;BME280;52474;52.236;5.114;2023-05-09T11:41:42;101105.63;;;14.08;100.00
59170;BME280;52474;52.236;5.114;2023-05-09T11:44:16;101135.84;;;14.17;100.00
59170;BME280;52474;52.236;5.114;2023-05-09T11:46:43;101140.91;;;14.20;100.00
59170;BME280;52474;52.236;5.114;2023-05-09T11:49:09;101143.75;;;14.36;100.00
59170;BME280;52474;52.236;5.114;2023-05-09T11:51:35;101135.75;;;14.36;100.00
59170;BME280;52474;52.236;5.114;2023-05-09T11:54:05;101139.44;;;14.35;100.00
59170;BME280;52474;52.236;5.114;2023-05-09T11:56:33;101135.66;;;14.28;100.00
59170;BME280;52474;52.236;5.114;2023-05-09T11:59:00;101128.75;;;14.35;100.00
59170;BME280;52474;52.236;5.114;2023-05-09T12:01:28;101136.06;;;14.33;100.00
59170;BME280;52474;52.236;5.114;2023-05-09T12:03:54;101129.75;;;14.34;100.00
59170;BME280;52474;52.236;5.114;2023-05-09T12:06:20;101121.84;;;14.43;100.00
59170;BME280;52474;52.236;5.114;2023-05-09T12:08:55;101118.94;;;14.36;100.00
59170;BME280;52474;52.236;5.114;2023-05-09T12:11:23;101134.44;;;14.50;100.00
59170;BME280;52474;52.236;5.114;2023-05-09T12:13:50;101117.28;;;14.35;100.00
59170;BME280;52474;52.236;5.114;2023-05-09T12:16:17;101089.63;;;14.36;100.00
59170;BME280;52474;52.236;5.114;2023-05-09T12:18:52;101119.50;;;14.67;100.00
59170;BME280;52474;52.236;5.114;2023-05-09T12:21:19;101117.03;;;14.56;100.00
59170;BME280;52474;52.236;5.114;2023-05-09T12:23:46;101057.78;;;14.16;100.00
59170;BME280;52474;52.236;5.114;2023-05-09T12:26:12;101090.91;;;14.32;100.00
59170;BME280;52474;52.236;5.114;2023-05-09T12:28:38;101087.03;;;14.26;100.00
59170;BME280;52474;52.236;5.114;2023-05-09T12:31:05;101109.72;;;14.30;100.00
59170;BME280;52474;52.236;5.114;2023-05-09T12:33:31;101108.16;;;14.37;100.00
59170;BME280;52474;52.236;5.114;2023-05-09T12:36:10;101090.91;;;14.32;100.00
59170;BME280;52474;52.236;5.114;2023-05-09T12:38:36;101100.91;;;14.57;100.00
59170;BME280;52474;52.236;5.114;2023-05-09T12:41:09;101104.69;;;14.55;100.00
59170;BME280;52474;52.236;5.114;2023-05-09T12:43:37;101105.53;;;14.55;100.00
59170;BME280;52474;52.236;5.114;2023-05-09T12:46:07;101034.13;;;14.31;100.00
59170;BME280;52474;52.236;5.114;2023-05-09T12:48:35;101099.19;;;14.56;100.00
59170;BME280;52474;52.236;5.114;2023-05-09T12:51:03;101080.41;;;14.30;100.00
59170;BME280;52474;52.236;5.114;2023-05-09T12:53:29;101095.66;;;14.38;100.00
59170;BME280;52474;52.236;5.114;2023-05-09T12:56:03;101099.13;;;14.21;100.00
59170;BME280;52474;52.236;5.114;2023-05-09T12:58:32;101054.03;;;14.09;100.00
59170;BME280;52474;52.236;5.114;2023-05-09T13:01:02;101091.41;;;14.45;100.00
59170;BME280;52474;52.236;5.114;2023-05-09T13:03:31;101088.47;;;14.66;100.00
59170;BME280;52474;52.236;5.114;2023-05-09T13:06:04;101087.97;;;14.53;100.00